Time;durP1;ratioP1;P1;durP2;ratioP2;P2;SDS_P1;SDS_P2;PMS_P1;PMS_P2;Temp;Humidity;BMP_temperature;BMP_pressure;BME280_temperature;BME280_humidity;BME280_pressure;Samples;Min_cycle;Max_cycle;Signal;HPM_P1;HPM_P2
2023/01/21 00:00:10;;;;;;;81.53;30.23;;;-0.70;99.90;;;;;;5037091;28;20204;-67
2023/01/21 00:02:37;;;;;;;77.27;28.83;;;-0.70;99.90;;;;;;5047254;28;20619;-67
2023/01/21 00:05:04;;;;;;;78.30;26.93;;;-0.70;99.90;;;;;;5044844;28;20210;-68
2023/01/21 00:07:31;;;;;;;80.60;29.37;;;-0.80;99.90;;;;;;5045494;28;20219;-68
2023/01/21 00:09:57;;;;;;;86.27;30.37;;;-0.80;99.90;;;;;;5042397;28;20210;-68
2023/01/21 00:12:24;;;;;;;76.50;29.33;;;-0.80;99.90;;;;;;5044305;28;20637;-68
2023/01/21 00:14:51;;;;;;;83.90;28.07;;;-0.80;99.90;;;;;;5025373;28;20299;-71
2023/01/21 00:17:17;;;;;;;73.40;28.20;;;-0.80;99.90;;;;;;5030038;28;20237;-67
2023/01/21 00:19:44;;;;;;;73.57;26.03;;;-0.80;99.90;;;;;;5047226;28;20216;-67
2023/01/21 00:22:11;;;;;;;85.07;29.03;;;-0.90;99.90;;;;;;5037808;28;20245;-67
2023/01/21 00:24:38;;;;;;;80.23;29.33;;;-0.90;99.90;;;;;;5045749;28;20214;-67
2023/01/21 00:27:04;;;;;;;72.90;27.20;;;-0.90;99.90;;;;;;5044432;28;20311;-67
2023/01/21 00:29:31;;;;;;;75.03;28.63;;;-0.80;99.90;;;;;;5028932;28;20258;-67
2023/01/21 00:31:58;;;;;;;79.77;26.90;;;-0.90;99.90;;;;;;5047780;28;20311;-67
2023/01/21 00:34:24;;;;;;;67.20;26.00;;;-0.80;99.90;;;;;;5039349;28;20333;-68
2023/01/21 00:36:51;;;;;;;71.47;26.97;;;-0.90;99.90;;;;;;5043387;28;20553;-67
2023/01/21 00:39:20;;;;;;;71.60;26.80;;;-0.90;99.90;;;;;;5033637;28;20551;-67
2023/01/21 00:41:47;;;;;;;74.83;27.43;;;-0.90;99.90;;;;;;5041787;28;20516;-67
2023/01/21 00:44:15;;;;;;;78.23;27.93;;;-0.90;99.90;;;;;;5043157;28;20296;-67
2023/01/21 00:46:41;;;;;;;82.63;28.77;;;-0.90;99.90;;;;;;5040585;28;20218;-69
2023/01/21 00:49:08;;;;;;;73.10;26.47;;;-0.90;99.90;;;;;;5026311;28;20207;-68
2023/01/21 00:51:35;;;;;;;81.80;28.50;;;-0.90;99.90;;;;;;5046273;28;20207;-67
2023/01/21 00:54:01;;;;;;;84.80;28.83;;;-0.90;99.90;;;;;;5046166;28;20232;-67
2023/01/21 00:56:28;;;;;;;70.90;26.23;;;-0.90;99.90;;;;;;5039366;28;20302;-67
2023/01/21 00:58:55;;;;;;;74.77;24.80;;;-0.90;99.90;;;;;;5045136;28;20218;-67
2023/01/21 01:01:22;;;;;;;81.47;26.70;;;-0.90;99.90;;;;;;5031541;28;20199;-67
2023/01/21 01:03:49;;;;;;;77.63;28.27;;;-0.90;99.90;;;;;;5044705;28;20586;-68
2023/01/21 01:06:18;;;;;;;69.50;26.37;;;-1.00;99.90;;;;;;5045229;28;20303;-68
2023/01/21 01:08:46;;;;;;;74.00;26.00;;;-0.90;99.90;;;;;;5039629;28;20566;-69
2023/01/21 01:11:13;;;;;;;77.70;27.63;;;-0.90;99.90;;;;;;5045155;28;20215;-67
2023/01/21 01:13:40;;;;;;;77.57;27.03;;;-1.00;99.90;;;;;;5042187;28;20330;-68
2023/01/21 01:16:07;;;;;;;74.27;27.10;;;-1.00;99.90;;;;;;5041735;28;20211;-67
2023/01/21 01:18:35;;;;;;;78.77;27.57;;;-1.00;99.90;;;;;;5044664;28;20252;-67
2023/01/21 01:21:04;;;;;;;69.13;25.77;;;-1.00;99.90;;;;;;5037246;28;20217;-67
2023/01/21 01:23:32;;;;;;;71.27;26.90;;;-1.00;99.90;;;;;;5043657;28;20204;-68
2023/01/21 01:26:01;;;;;;;77.97;28.07;;;-1.00;99.90;;;;;;5043931;28;20214;-67
2023/01/21 01:28:28;;;;;;;70.00;26.60;;;-1.00;99.90;;;;;;5047957;28;20217;-67
2023/01/21 01:30:56;;;;;;;77.07;27.33;;;-1.00;99.90;;;;;;5040260;28;20212;-67
2023/01/21 01:33:24;;;;;;;81.80;28.23;;;-1.00;99.90;;;;;;5024651;28;20349;-67
2023/01/21 01:35:51;;;;;;;76.43;27.07;;;-1.00;99.90;;;;;;5040851;28;20263;-68
2023/01/21 01:38:20;;;;;;;81.37;28.80;;;-1.00;99.90;;;;;;5043190;28;20215;-68
2023/01/21 01:40:49;;;;;;;78.27;26.50;;;-1.10;99.90;;;;;;5047661;28;20322;-67
2023/01/21 01:43:20;;;;;;;68.70;25.67;;;-1.10;99.90;;;;;;5043870;28;20616;-68
2023/01/21 01:45:48;;;;;;;81.70;27.60;;;-1.10;99.90;;;;;;5040160;28;20778;-68
2023/01/21 01:48:31;;;;;;;75.20;29.03;;;-1.10;99.90;;;;;;5043365;28;20223;-67
2023/01/21 01:51:02;;;;;;;67.80;25.13;;;-1.10;99.90;;;;;;5031916;28;20304;-68
2023/01/21 01:53:30;;;;;;;68.83;26.13;;;-1.10;99.90;;;;;;5047245;28;20324;-68
2023/01/21 01:55:58;;;;;;;76.73;26.00;;;-1.10;99.90;;;;;;5045410;28;20214;-68
2023/01/21 01:58:27;;;;;;;71.97;26.53;;;-1.10;99.90;;;;;;5030138;28;20709;-68
2023/01/21 02:00:54;;;;;;;70.00;26.43;;;-1.10;99.90;;;;;;5044136;28;20217;-67
2023/01/21 02:06:06;;;;;;;72.97;26.33;;;-1.20;99.90;;;;;;5044146;28;20197;-67
2023/01/21 02:08:35;;;;;;;83.47;27.07;;;-1.20;99.90;;;;;;5036820;28;20206;-67
2023/01/21 02:11:05;;;;;;;71.33;25.97;;;-1.30;99.90;;;;;;5038924;28;20667;-68
2023/01/21 02:13:32;;;;;;;82.83;29.17;;;-1.30;99.90;;;;;;5042501;28;20709;-68
2023/01/21 02:16:26;;;;;;;79.73;28.20;;;-1.30;99.90;;;;;;5042794;28;20214;-67
2023/01/21 02:19:31;;;;;;;82.63;26.63;;;-1.30;99.90;;;;;;5039963;28;20678;-68
2023/01/21 02:22:22;;;;;;;82.77;27.33;;;-1.30;99.90;;;;;;5040544;28;20214;-67
2023/01/21 02:25:05;;;;;;;76.03;26.80;;;-1.30;99.90;;;;;;5044899;28;20262;-67
2023/01/21 02:27:39;;;;;;;74.20;26.63;;;-1.30;99.90;;;;;;5044884;28;20206;-67
2023/01/21 02:30:40;;;;;;;90.03;29.13;;;-1.30;99.90;;;;;;5041011;28;20215;-67
2023/01/21 02:33:27;;;;;;;87.77;28.17;;;-1.30;99.90;;;;;;5041492;28;20230;-67
2023/01/21 02:36:19;;;;;;;80.87;26.00;;;-1.30;99.90;;;;;;5041583;28;20249;-68
2023/01/21 02:38:52;;;;;;;78.87;25.97;;;-1.40;99.90;;;;;;5044358;28;20642;-67
2023/01/21 02:41:41;;;;;;;86.13;27.23;;;-1.40;99.90;;;;;;5045878;28;20209;-68
2023/01/21 02:44:31;;;;;;;86.93;26.93;;;-1.40;99.90;;;;;;5040053;28;20202;-68
2023/01/21 02:47:25;;;;;;;89.43;30.07;;;-1.40;99.90;;;;;;5039018;28;20245;-67
2023/01/21 02:49:57;;;;;;;84.40;27.37;;;-1.40;99.90;;;;;;5031692;28;20288;-67
2023/01/21 02:52:25;;;;;;;91.93;30.03;;;-1.40;99.90;;;;;;5039008;28;20218;-67
2023/01/21 02:54:55;;;;;;;83.23;26.77;;;-1.40;99.90;;;;;;5040470;28;20232;-68
2023/01/21 02:57:47;;;;;;;85.97;27.40;;;-1.40;99.90;;;;;;5042475;28;20206;-67
2023/01/21 03:00:21;;;;;;;81.57;26.10;;;-1.40;99.90;;;;;;5038450;28;20560;-68
2023/01/21 03:02:48;;;;;;;85.80;27.90;;;-1.40;99.90;;;;;;5037848;28;20224;-67
2023/01/21 03:05:31;;;;;;;87.00;28.17;;;-1.50;99.90;;;;;;5039363;28;20212;-67
2023/01/21 03:08:09;;;;;;;87.27;28.67;;;-1.50;99.90;;;;;;5041908;28;20325;-68
2023/01/21 03:10:42;;;;;;;95.60;31.17;;;-1.60;99.90;;;;;;5048269;28;20234;-67
2023/01/21 03:16:55;;;;;;;87.23;27.70;;;-1.50;99.90;;;;;;5042401;28;20321;-68
2023/01/21 03:18:57;;;;;;;89.20;28.47;;;-1.60;99.90;;;;;;5048093;28;20756;-68
2023/01/21 03:21:26;;;;;;;92.03;29.43;;;-1.60;99.90;;;;;;5029360;28;20818;-67
2023/01/21 03:23:56;;;;;;;91.53;28.83;;;-1.60;99.90;;;;;;5044235;28;20667;-67
2023/01/21 03:26:29;;;;;;;92.13;28.70;;;-1.60;99.90;;;;;;5037838;28;20245;-68
2023/01/21 03:28:59;;;;;;;93.30;28.33;;;-1.60;99.90;;;;;;5041507;28;20218;-68
2023/01/21 03:31:31;;;;;;;94.37;30.00;;;-1.60;99.90;;;;;;5033836;28;20229;-68
2023/01/21 03:34:02;;;;;;;90.07;30.97;;;-1.60;99.90;;;;;;5039138;28;20637;-67
2023/01/21 03:36:32;;;;;;;90.83;29.00;;;-1.60;99.90;;;;;;5030778;28;20203;-68
2023/01/21 03:39:03;;;;;;;95.60;30.10;;;-1.60;99.90;;;;;;5032671;28;20297;-68
2023/01/21 03:41:35;;;;;;;96.07;29.80;;;-1.60;99.90;;;;;;5046259;28;20298;-67
2023/01/21 03:44:02;;;;;;;89.20;28.97;;;-1.70;99.90;;;;;;5044358;28;20202;-68
2023/01/21 03:46:40;;;;;;;81.53;29.70;;;-1.70;99.90;;;;;;5045784;28;20892;-69
2023/01/21 03:49:31;;;;;;;86.10;27.30;;;-1.60;99.90;;;;;;5043317;28;20289;-68
2023/01/21 03:52:00;;;;;;;97.60;29.17;;;-1.70;99.90;;;;;;5042518;28;20596;-67
2023/01/21 03:54:27;;;;;;;96.00;30.27;;;-1.70;99.90;;;;;;5044331;28;20273;-68
2023/01/21 03:56:53;;;;;;;114.17;32.07;;;-1.70;99.90;;;;;;5029355;28;20231;-67
2023/01/21 03:59:20;;;;;;;108.70;30.60;;;-1.70;99.90;;;;;;5042260;28;20301;-67
2023/01/21 04:01:47;;;;;;;105.87;29.60;;;-1.70;99.90;;;;;;5040423;28;20337;-67
2023/01/21 04:04:14;;;;;;;107.03;30.93;;;-1.70;99.90;;;;;;5044633;28;20808;-68
2023/01/21 04:06:40;;;;;;;109.33;31.77;;;-1.70;99.90;;;;;;5046538;28;20284;-67
2023/01/21 04:09:10;;;;;;;106.73;31.40;;;-1.60;99.90;;;;;;5027085;28;20219;-68
2023/01/21 04:11:36;;;;;;;113.07;33.30;;;-1.50;99.90;;;;;;5043794;28;20262;-67
2023/01/21 04:14:03;;;;;;;114.43;31.97;;;-1.50;99.90;;;;;;5027216;28;20702;-68
2023/01/21 04:16:30;;;;;;;110.23;32.93;;;-1.40;99.90;;;;;;5045282;28;20234;-68
2023/01/21 04:18:57;;;;;;;106.53;31.30;;;-1.30;99.90;;;;;;5047206;28;20218;-66
2023/01/21 04:21:23;;;;;;;103.97;31.50;;;-1.30;99.90;;;;;;5037326;28;20195;-67
2023/01/21 04:23:50;;;;;;;111.27;30.40;;;-1.20;99.90;;;;;;5046724;28;20574;-68
2023/01/21 04:26:17;;;;;;;118.30;33.77;;;-1.10;99.90;;;;;;5053333;28;20216;-67
2023/01/21 04:28:43;;;;;;;119.80;34.53;;;-1.10;99.90;;;;;;5047802;28;20224;-67
2023/01/21 04:31:10;;;;;;;136.50;34.50;;;-1.00;99.90;;;;;;5026878;28;20307;-67
2023/01/21 04:33:37;;;;;;;129.27;32.97;;;-1.00;99.90;;;;;;5044086;28;20251;-67
2023/01/21 04:36:04;;;;;;;129.23;34.43;;;-0.90;99.90;;;;;;5037881;28;20313;-67
2023/01/21 04:38:31;;;;;;;147.60;35.67;;;-0.90;99.90;;;;;;5040524;28;20303;-68
2023/01/21 04:40:57;;;;;;;150.07;37.50;;;-0.80;99.90;;;;;;5042929;28;20482;-68
2023/01/21 04:43:24;;;;;;;141.70;36.03;;;-0.80;99.90;;;;;;5035996;28;20220;-68
2023/01/21 04:45:51;;;;;;;156.37;38.47;;;-0.80;99.90;;;;;;5043124;28;20316;-68
2023/01/21 04:48:18;;;;;;;162.90;39.00;;;-0.70;99.90;;;;;;5041334;28;20228;-66
2023/01/21 04:50:45;;;;;;;148.40;37.10;;;-0.70;99.90;;;;;;5043152;28;20233;-68
2023/01/21 04:53:12;;;;;;;148.90;39.13;;;-0.70;99.90;;;;;;5041727;28;20214;-68
2023/01/21 04:55:39;;;;;;;155.77;36.83;;;-0.60;99.90;;;;;;5037732;28;20756;-68
2023/01/21 04:58:05;;;;;;;152.30;38.73;;;-0.60;99.90;;;;;;5047514;28;20214;-67
2023/01/21 05:00:32;;;;;;;157.90;39.40;;;-0.60;99.90;;;;;;5039102;28;20293;-68
2023/01/21 05:02:59;;;;;;;159.70;39.90;;;-0.60;99.90;;;;;;5039423;28;20591;-68
2023/01/21 05:05:26;;;;;;;168.87;39.00;;;-0.60;99.90;;;;;;5045287;28;20253;-68
2023/01/21 05:07:53;;;;;;;148.90;36.93;;;-0.50;99.90;;;;;;5041149;28;20585;-69
2023/01/21 05:10:19;;;;;;;163.77;39.60;;;-0.50;99.90;;;;;;5043431;28;20303;-68
2023/01/21 05:12:47;;;;;;;158.37;39.17;;;-0.50;99.90;;;;;;5040208;28;20213;-69
2023/01/21 05:15:14;;;;;;;167.50;40.23;;;-0.40;99.90;;;;;;5042791;28;20236;-68
2023/01/21 05:17:41;;;;;;;151.03;38.23;;;-0.30;99.90;;;;;;5038912;28;20228;-70
2023/01/21 05:20:08;;;;;;;154.37;39.53;;;-0.40;99.90;;;;;;5042837;28;20667;-68
2023/01/21 05:22:35;;;;;;;161.00;38.83;;;-0.30;99.90;;;;;;5040596;28;20319;-67
2023/01/21 05:25:02;;;;;;;162.30;37.97;;;-0.30;99.90;;;;;;5044250;28;20231;-67
2023/01/21 05:27:28;;;;;;;167.30;40.73;;;-0.30;99.90;;;;;;5045357;28;20577;-69
2023/01/21 05:29:56;;;;;;;146.47;36.97;;;-0.20;99.90;;;;;;5036887;28;20250;-67
2023/01/21 05:32:23;;;;;;;149.70;37.17;;;-0.20;99.90;;;;;;5038474;28;20267;-68
2023/01/21 05:34:49;;;;;;;164.77;40.47;;;-0.20;99.90;;;;;;5039210;28;20600;-68
2023/01/21 05:37:16;;;;;;;176.80;41.43;;;-0.20;99.90;;;;;;5040656;28;20595;-68
2023/01/21 05:39:43;;;;;;;144.13;37.27;;;-0.20;99.90;;;;;;5045514;28;20354;-68
2023/01/21 05:42:10;;;;;;;154.00;37.27;;;-0.20;99.90;;;;;;5038177;28;20206;-69
2023/01/21 05:44:36;;;;;;;159.23;37.50;;;-0.10;99.90;;;;;;5043467;28;20228;-67
2023/01/21 05:47:03;;;;;;;151.50;37.23;;;-0.10;99.90;;;;;;5039127;28;20222;-67
2023/01/21 05:49:30;;;;;;;147.30;36.20;;;-0.10;99.90;;;;;;5044059;28;20213;-67
2023/01/21 05:51:57;;;;;;;136.87;34.73;;;-0.20;99.90;;;;;;5043946;28;20219;-67
2023/01/21 05:54:23;;;;;;;141.53;35.10;;;-0.20;99.90;;;;;;5043653;28;20726;-67
2023/01/21 05:56:50;;;;;;;143.03;35.47;;;-0.20;99.90;;;;;;5041422;28;20193;-68
2023/01/21 05:59:17;;;;;;;149.30;36.77;;;-0.20;99.90;;;;;;5043912;28;20205;-67
2023/01/21 06:01:43;;;;;;;154.93;37.13;;;-0.20;99.90;;;;;;5044608;28;20457;-67
2023/01/21 06:04:10;;;;;;;154.97;37.37;;;-0.20;99.90;;;;;;5038132;28;20744;-68
2023/01/21 06:06:37;;;;;;;151.10;35.97;;;-0.20;99.90;;;;;;5043579;28;20285;-67
2023/01/21 06:09:03;;;;;;;141.03;33.57;;;-0.10;99.90;;;;;;5037920;28;21001;-68
2023/01/21 06:11:30;;;;;;;160.93;39.50;;;-0.10;99.90;;;;;;5044156;28;20205;-68
2023/01/21 06:13:57;;;;;;;136.33;34.60;;;-0.10;99.90;;;;;;5042720;28;20271;-67
2023/01/21 06:16:24;;;;;;;132.20;33.97;;;0.00;99.90;;;;;;5039507;28;20214;-68
2023/01/21 06:18:50;;;;;;;139.23;34.93;;;0.00;99.90;;;;;;5038143;28;20620;-67
2023/01/21 06:21:17;;;;;;;141.43;35.30;;;0.00;99.90;;;;;;5037466;28;20205;-68
2023/01/21 06:23:44;;;;;;;129.00;34.17;;;0.10;99.90;;;;;;5042462;28;20301;-68
2023/01/21 06:26:10;;;;;;;151.87;34.10;;;0.10;99.90;;;;;;5038832;28;20219;-67
2023/01/21 06:28:37;;;;;;;135.43;33.47;;;0.10;99.90;;;;;;5040379;28;20209;-68
2023/01/21 06:31:04;;;;;;;123.97;32.80;;;0.10;99.90;;;;;;5018303;28;20756;-68
2023/01/21 06:33:31;;;;;;;134.67;34.97;;;0.20;99.90;;;;;;5040506;28;20768;-68
2023/01/21 06:35:57;;;;;;;145.10;36.07;;;0.20;99.90;;;;;;5039254;28;20722;-68
2023/01/21 06:38:24;;;;;;;134.87;33.87;;;0.20;99.90;;;;;;5042338;28;20678;-68
2023/01/21 06:40:51;;;;;;;146.17;35.90;;;0.30;99.90;;;;;;5043160;28;20286;-67
2023/01/21 06:43:17;;;;;;;130.53;33.73;;;0.30;99.90;;;;;;5028308;28;20211;-67
2023/01/21 06:45:44;;;;;;;128.50;32.23;;;0.30;99.90;;;;;;5025437;28;20213;-68
2023/01/21 06:48:11;;;;;;;123.97;32.23;;;0.30;99.90;;;;;;5044807;28;20217;-68
2023/01/21 06:50:37;;;;;;;126.37;33.90;;;0.40;99.90;;;;;;5038226;28;20208;-67
2023/01/21 06:53:04;;;;;;;128.97;33.37;;;0.40;99.90;;;;;;5041306;28;20292;-68
2023/01/21 06:55:31;;;;;;;114.70;30.33;;;0.40;99.90;;;;;;5047737;28;20238;-68
2023/01/21 06:57:57;;;;;;;122.50;32.60;;;0.40;99.90;;;;;;5048730;28;20199;-67
2023/01/21 07:00:24;;;;;;;123.97;32.03;;;0.40;99.90;;;;;;5043934;28;20308;-67
2023/01/21 07:02:57;;;;;;;111.10;31.07;;;0.40;99.90;;;;;;5047237;28;20221;-67
2023/01/21 07:05:25;;;;;;;121.10;31.20;;;0.50;99.90;;;;;;5043107;28;20209;-68
2023/01/21 07:07:56;;;;;;;122.33;33.80;;;0.50;99.90;;;;;;5045874;28;20627;-67
2023/01/21 07:10:24;;;;;;;119.93;33.47;;;0.50;99.90;;;;;;5045194;28;20296;-68
2023/01/21 07:12:50;;;;;;;114.93;32.77;;;0.50;99.90;;;;;;5044790;28;20285;-68
2023/01/21 07:15:17;;;;;;;114.03;32.70;;;0.50;99.90;;;;;;5045735;28;20247;-68
2023/01/21 07:17:45;;;;;;;115.97;32.33;;;0.60;99.90;;;;;;5027615;28;20287;-67
2023/01/21 07:20:12;;;;;;;143.90;33.33;;;0.60;99.90;;;;;;5045392;28;20244;-68
2023/01/21 07:22:39;;;;;;;131.03;32.43;;;0.60;99.90;;;;;;5048256;28;20205;-67
2023/01/21 07:25:06;;;;;;;117.13;31.73;;;0.60;99.90;;;;;;5047287;28;20288;-67
2023/01/21 07:27:33;;;;;;;125.90;31.60;;;0.60;99.90;;;;;;5041013;28;20852;-67
2023/01/21 07:29:59;;;;;;;122.07;31.07;;;0.60;99.90;;;;;;5045040;28;20200;-68
2023/01/21 07:32:26;;;;;;;122.30;30.47;;;0.70;99.90;;;;;;5029792;28;20265;-67
2023/01/21 07:34:53;;;;;;;109.50;30.53;;;0.70;99.90;;;;;;5045054;28;20315;-68
2023/01/21 07:37:19;;;;;;;114.43;31.80;;;0.60;99.90;;;;;;5044578;28;20244;-68
2023/01/21 07:39:46;;;;;;;122.57;30.83;;;0.60;99.90;;;;;;5041988;28;20229;-68
2023/01/21 07:42:13;;;;;;;121.37;29.43;;;0.60;99.90;;;;;;5046535;28;20202;-67
2023/01/21 07:44:39;;;;;;;109.33;30.43;;;0.70;99.90;;;;;;5042991;28;20499;-67
2023/01/21 07:47:09;;;;;;;105.63;28.67;;;0.70;99.90;;;;;;5024539;28;20224;-67
2023/01/21 07:49:36;;;;;;;107.20;28.00;;;0.70;99.90;;;;;;5027656;28;20331;-68
2023/01/21 07:52:03;;;;;;;115.93;30.30;;;0.70;99.90;;;;;;5038726;28;20237;-69
2023/01/21 07:54:30;;;;;;;94.67;28.50;;;0.80;99.90;;;;;;5045139;28;20261;-68
2023/01/21 07:56:57;;;;;;;115.03;31.17;;;0.80;99.90;;;;;;5044692;28;20245;-68
2023/01/21 07:59:24;;;;;;;103.33;29.03;;;0.80;99.90;;;;;;5041580;28;20198;-68
2023/01/21 08:01:50;;;;;;;105.07;29.50;;;0.90;99.90;;;;;;5040828;28;20744;-67
2023/01/21 08:04:18;;;;;;;103.07;27.40;;;0.80;99.90;;;;;;5046833;28;20217;-68
2023/01/21 08:06:44;;;;;;;96.83;26.73;;;0.90;99.90;;;;;;5047699;28;20202;-68
2023/01/21 08:09:11;;;;;;;96.57;26.67;;;0.90;99.90;;;;;;5046848;28;20536;-67
2023/01/21 08:11:38;;;;;;;99.27;27.10;;;1.00;99.90;;;;;;5044592;28;20281;-68
2023/01/21 08:14:04;;;;;;;87.30;26.17;;;1.00;99.90;;;;;;5041338;28;20203;-69
2023/01/21 08:16:31;;;;;;;98.93;28.73;;;1.00;99.90;;;;;;5027329;28;20205;-68
2023/01/21 08:18:58;;;;;;;92.60;26.73;;;1.00;99.90;;;;;;5031675;28;20261;-68
2023/01/21 08:21:24;;;;;;;99.63;28.43;;;1.10;99.90;;;;;;5037207;28;20300;-69
2023/01/21 08:23:51;;;;;;;101.90;28.30;;;1.10;99.90;;;;;;5050441;28;20205;-68
2023/01/21 08:26:18;;;;;;;99.93;29.13;;;1.10;99.90;;;;;;5038703;28;20567;-67
2023/01/21 08:28:44;;;;;;;99.57;27.73;;;1.20;99.90;;;;;;5032482;28;20554;-69
2023/01/21 08:31:12;;;;;;;102.43;27.80;;;1.10;99.90;;;;;;5044134;28;20205;-67
2023/01/21 08:33:39;;;;;;;93.97;26.60;;;1.20;99.90;;;;;;5045170;28;20560;-68
2023/01/21 08:36:07;;;;;;;95.07;27.33;;;1.20;99.90;;;;;;5042975;28;20234;-68
2023/01/21 08:38:34;;;;;;;97.27;26.87;;;1.20;99.90;;;;;;5043723;28;20714;-68
2023/01/21 08:41:01;;;;;;;95.10;28.30;;;1.20;99.90;;;;;;5043032;28;20247;-67
2023/01/21 08:43:28;;;;;;;92.33;27.37;;;1.20;99.90;;;;;;5051084;28;20293;-69
2023/01/21 08:45:56;;;;;;;98.23;27.10;;;1.20;99.90;;;;;;5042503;28;20753;-68
2023/01/21 08:48:23;;;;;;;109.93;28.70;;;1.20;99.90;;;;;;5045885;28;20677;-68
2023/01/21 08:50:50;;;;;;;86.93;26.93;;;1.30;99.90;;;;;;5043634;28;20667;-68
2023/01/21 08:53:16;;;;;;;97.23;27.53;;;1.30;99.90;;;;;;5046166;28;20275;-67
2023/01/21 08:55:43;;;;;;;97.50;28.80;;;1.30;99.90;;;;;;5040791;28;20316;-67
2023/01/21 08:58:10;;;;;;;85.33;27.27;;;1.40;99.90;;;;;;5046596;28;20728;-67
2023/01/21 09:00:37;;;;;;;97.83;30.17;;;1.40;99.90;;;;;;5039231;28;20210;-68
2023/01/21 09:03:03;;;;;;;96.97;27.93;;;1.40;99.90;;;;;;5045983;28;20225;-67
2023/01/21 09:05:30;;;;;;;97.47;28.43;;;1.40;99.90;;;;;;5044957;28;20215;-67
2023/01/21 09:07:57;;;;;;;87.67;26.43;;;1.50;99.90;;;;;;5040450;28;20209;-70
2023/01/21 09:13:10;;;;;;;104.83;27.27;;;1.50;99.90;;;;;;5039448;28;20293;-68
2023/01/21 09:15:38;;;;;;;97.37;28.27;;;1.50;99.90;;;;;;5042492;28;20752;-68
2023/01/21 09:18:05;;;;;;;96.67;26.13;;;1.50;99.90;;;;;;5027661;28;20272;-68
2023/01/21 09:20:32;;;;;;;91.20;27.87;;;1.60;99.90;;;;;;5041491;28;20293;-67
2023/01/21 09:22:58;;;;;;;102.23;29.10;;;1.60;99.90;;;;;;5042396;28;20259;-68
2023/01/21 09:25:25;;;;;;;80.93;26.27;;;1.60;99.90;;;;;;5044539;28;20566;-68
2023/01/21 09:27:52;;;;;;;86.57;26.37;;;1.60;99.90;;;;;;5045143;28;20202;-68
2023/01/21 09:30:19;;;;;;;78.77;24.23;;;1.60;99.90;;;;;;5035396;28;20577;-67
2023/01/21 09:32:45;;;;;;;93.90;27.80;;;1.60;99.90;;;;;;5043875;28;20695;-68
2023/01/21 09:35:12;;;;;;;88.20;26.87;;;1.60;99.90;;;;;;5022485;28;20715;-68
2023/01/21 09:37:39;;;;;;;96.57;27.17;;;1.60;99.90;;;;;;5041705;28;20320;-67
2023/01/21 09:40:07;;;;;;;86.03;26.73;;;1.70;99.90;;;;;;5044511;28;20237;-68
2023/01/21 09:42:34;;;;;;;92.53;24.53;;;1.70;99.90;;;;;;5036081;28;20672;-67
2023/01/21 09:45:02;;;;;;;82.63;24.97;;;1.80;99.90;;;;;;5045222;28;20581;-68
2023/01/21 09:47:38;;;;;;;81.43;25.27;;;1.70;99.90;;;;;;5038239;28;20235;-67
2023/01/21 09:50:18;;;;;;;88.47;26.07;;;1.80;99.90;;;;;;5040875;28;20631;-67
2023/01/21 09:52:47;;;;;;;72.27;25.27;;;1.70;99.90;;;;;;5044445;28;20279;-67
2023/01/21 09:55:19;;;;;;;85.37;25.53;;;1.80;99.90;;;;;;5026985;28;20234;-69
2023/01/21 09:57:50;;;;;;;84.87;25.83;;;1.80;99.90;;;;;;5045706;28;20251;-67
2023/01/21 10:00:30;;;;;;;84.93;27.57;;;1.80;99.90;;;;;;5041684;28;20665;-66
2023/01/21 10:03:08;;;;;;;74.70;25.23;;;1.80;99.90;;;;;;5042131;28;20302;-67
2023/01/21 10:05:56;;;;;;;70.90;24.80;;;1.80;99.90;;;;;;5043684;28;20215;-68
2023/01/21 10:08:41;;;;;;;79.17;25.57;;;1.80;99.90;;;;;;5039540;28;20206;-67
2023/01/21 10:11:41;;;;;;;88.40;28.87;;;1.90;99.90;;;;;;5022929;28;20293;-67
2023/01/21 10:14:42;;;;;;;78.10;25.97;;;1.90;99.90;;;;;;5043678;28;20210;-68
2023/01/21 10:17:35;;;;;;;106.80;34.80;;;1.90;99.90;;;;;;5037045;28;20577;-68
2023/01/21 10:20:24;;;;;;;80.97;24.90;;;2.00;99.90;;;;;;5024114;28;20645;-68
2023/01/21 10:23:04;;;;;;;83.20;28.50;;;1.90;99.90;;;;;;5043056;28;20313;-68
2023/01/21 10:25:33;;;;;;;85.30;26.13;;;1.90;99.90;;;;;;5042720;28;20251;-68
2023/01/21 10:28:29;;;;;;;83.20;27.77;;;2.00;99.90;;;;;;5043166;28;20210;-68
2023/01/21 10:31:03;;;;;;;99.17;29.07;;;2.10;99.90;;;;;;5027984;28;20406;-67
2023/01/21 10:33:31;;;;;;;84.27;25.13;;;2.10;99.90;;;;;;5044525;28;20232;-67
2023/01/21 10:36:10;;;;;;;85.10;27.20;;;2.20;99.90;;;;;;5028192;28;20235;-67
2023/01/21 10:38:45;;;;;;;94.63;32.13;;;2.30;99.90;;;;;;5043642;28;20586;-67
2023/01/21 10:41:40;;;;;;;92.07;33.27;;;2.40;99.90;;;;;;5049576;28;20348;-66
2023/01/21 10:44:35;;;;;;;89.20;29.67;;;2.40;99.90;;;;;;5025862;28;20312;-67
2023/01/21 10:47:20;;;;;;;69.33;27.23;;;2.50;99.90;;;;;;5040520;28;20315;-67
2023/01/21 10:50:26;;;;;;;82.07;26.23;;;2.50;99.90;;;;;;5045248;28;20731;-67
2023/01/21 10:53:02;;;;;;;77.33;27.13;;;2.60;99.90;;;;;;5041577;28;20230;-67
2023/01/21 10:55:42;;;;;;;86.23;25.63;;;2.70;99.90;;;;;;5048273;28;20611;-68
2023/01/21 10:58:26;;;;;;;67.47;24.63;;;2.70;99.90;;;;;;5044952;28;20201;-68
2023/01/21 11:00:55;;;;;;;72.53;25.47;;;2.70;99.90;;;;;;5026346;28;20209;-68
2023/01/21 11:03:34;;;;;;;75.67;26.33;;;2.70;99.90;;;;;;5021169;28;20271;-68
2023/01/21 11:06:03;;;;;;;71.50;25.53;;;2.80;99.90;;;;;;5037482;28;20275;-68
2023/01/21 11:08:30;;;;;;;69.53;24.43;;;2.80;99.90;;;;;;5023103;28;20208;-68
2023/01/21 11:10:58;;;;;;;76.03;27.33;;;2.80;99.90;;;;;;5045253;28;20609;-66
2023/01/21 11:13:25;;;;;;;66.30;24.37;;;2.90;99.90;;;;;;5025132;28;20305;-66
2023/01/21 11:15:54;;;;;;;62.20;23.30;;;2.90;99.90;;;;;;5040641;28;20225;-67
2023/01/21 11:18:29;;;;;;;66.20;24.63;;;3.00;99.90;;;;;;5041438;28;20217;-68
2023/01/21 11:21:02;;;;;;;66.43;24.93;;;3.00;99.90;;;;;;5038279;28;20269;-67
2023/01/21 11:23:34;;;;;;;80.20;31.13;;;2.90;99.90;;;;;;5043482;28;20680;-67
2023/01/21 11:26:03;;;;;;;65.47;27.93;;;2.90;99.90;;;;;;5038788;28;20301;-67
2023/01/21 11:28:30;;;;;;;68.20;26.53;;;2.80;99.90;;;;;;5049422;28;20236;-68
2023/01/21 11:31:11;;;;;;;66.40;25.40;;;2.80;99.90;;;;;;5027589;28;20212;-67
2023/01/21 11:33:39;;;;;;;65.43;24.50;;;2.80;99.90;;;;;;5047335;28;20419;-68
2023/01/21 11:36:16;;;;;;;64.57;24.60;;;2.80;99.90;;;;;;5048652;28;20317;-68
2023/01/21 11:38:46;;;;;;;62.47;23.77;;;2.80;99.90;;;;;;5026119;28;20220;-68
2023/01/21 11:41:14;;;;;;;69.93;25.03;;;2.90;99.90;;;;;;5045627;28;20264;-67
2023/01/21 11:43:43;;;;;;;57.93;25.13;;;2.90;99.90;;;;;;5044324;28;20203;-67
2023/01/21 11:46:25;;;;;;;62.43;24.13;;;2.90;99.90;;;;;;5048342;28;20243;-67
2023/01/21 11:48:54;;;;;;;66.43;24.43;;;2.90;99.90;;;;;;5042046;28;20657;-68
2023/01/21 11:51:21;;;;;;;61.93;24.93;;;2.90;99.90;;;;;;5046183;28;20208;-68
2023/01/21 11:54:04;;;;;;;64.33;24.07;;;2.90;99.90;;;;;;5030660;28;20271;-68
2023/01/21 11:56:31;;;;;;;58.93;23.17;;;2.90;99.90;;;;;;5044710;28;20246;-67
2023/01/21 11:58:58;;;;;;;61.63;24.33;;;2.80;99.90;;;;;;5042582;28;20209;-69
2023/01/21 12:01:25;;;;;;;55.37;23.20;;;2.80;99.90;;;;;;5040964;28;20212;-67
2023/01/21 12:03:54;;;;;;;56.33;23.63;;;2.90;99.90;;;;;;5025495;28;20266;-66
2023/01/21 12:06:24;;;;;;;62.73;25.33;;;3.00;99.90;;;;;;5048781;28;20296;-66
2023/01/21 12:08:56;;;;;;;54.30;21.90;;;3.00;99.90;;;;;;5047834;28;20295;-68
2023/01/21 12:11:25;;;;;;;55.60;23.20;;;3.00;99.90;;;;;;5044978;28;20617;-68
2023/01/21 12:14:14;;;;;;;59.40;24.70;;;3.00;99.90;;;;;;5043540;28;20285;-67
2023/01/21 12:17:00;;;;;;;50.07;21.67;;;3.10;99.90;;;;;;5044778;28;20236;-68
2023/01/21 12:19:56;;;;;;;51.70;21.00;;;3.10;99.90;;;;;;5051084;28;20552;-67
2023/01/21 12:22:47;;;;;;;54.90;21.97;;;3.10;99.90;;;;;;5023641;28;20609;-67
2023/01/21 12:25:28;;;;;;;55.33;20.60;;;3.20;99.90;;;;;;5046112;28;20205;-68
2023/01/21 12:28:24;;;;;;;50.60;21.23;;;3.20;99.90;;;;;;5046346;28;20206;-67
2023/01/21 12:30:55;;;;;;;54.30;22.10;;;3.20;99.90;;;;;;5032054;28;20721;-68
2023/01/21 12:34:01;;;;;;;51.40;20.43;;;3.10;99.90;;;;;;5043749;28;20532;-69
2023/01/21 12:36:40;;;;;;;53.43;20.07;;;3.20;99.90;;;;;;5043059;28;20684;-67
2023/01/21 12:39:16;;;;;;;59.67;21.87;;;3.10;99.90;;;;;;5044179;28;20206;-68
2023/01/21 12:41:50;;;;;;;59.47;22.07;;;3.10;99.90;;;;;;5031312;28;20254;-68
2023/01/21 12:44:43;;;;;;;54.73;22.63;;;3.20;99.90;;;;;;5049398;28;20216;-68
2023/01/21 12:47:33;;;;;;;54.50;21.37;;;3.20;99.90;;;;;;5038604;28;20263;-68
2023/01/21 12:50:22;;;;;;;53.47;22.43;;;3.30;99.90;;;;;;5046101;28;20209;-68
2023/01/21 12:53:02;;;;;;;51.73;21.70;;;3.30;99.90;;;;;;5050049;28;20306;-67
2023/01/21 12:56:19;;;;;;;52.23;20.63;;;3.40;99.90;;;;;;5039450;28;20237;-67